createdAt,value
2022-09-27T00:00:51.598Z,320.13
2022-09-27T00:02:41.451Z,313.17
2022-09-27T00:04:13.935Z,646.40
2022-09-27T00:05:46.136Z,395.17
2022-09-27T00:07:18.336Z,761.43
2022-09-27T00:08:50.776Z,922.03
2022-09-27T00:10:23.445Z,758.87
2022-09-27T00:11:56.055Z,1055.80
2022-09-27T00:13:29.436Z,1430.97
2022-09-27T00:15:02.270Z,819.03
2022-09-27T00:16:38.759Z,925.03
2022-09-27T00:18:10.955Z,1145.43
2022-09-27T00:19:43.299Z,1337.00
2022-09-27T00:21:16.400Z,1357.57
2022-09-27T00:22:50.306Z,1417.27
2022-09-27T00:24:23.657Z,817.33
2022-09-27T00:26:00.094Z,1567.10
2022-09-27T00:27:33.035Z,1333.20
2022-09-27T00:29:05.329Z,1490.67
2022-09-27T00:30:42.777Z,1327.60
2022-09-27T00:32:15.176Z,1999.90
2022-09-27T00:33:50.381Z,1599.83
2022-09-27T00:35:22.679Z,1769.60
2022-09-27T00:36:55.666Z,1484.13
2022-09-27T00:41:36.275Z,1288.20
2022-09-27T00:45:21.875Z,754.77
2022-09-27T00:47:32.232Z,1770.80
2022-09-27T00:49:33.265Z,1909.70
2022-09-27T00:51:10.092Z,1833.70
2022-09-27T00:52:57.119Z,693.03
2022-09-27T00:54:35.834Z,1697.50
2022-09-27T00:56:16.151Z,1794.40
2022-09-27T00:57:50.169Z,1999.90
2022-09-27T00:59:37.890Z,1640.70
2022-09-27T01:01:11.979Z,350.63
2022-09-27T01:02:55.210Z,576.80
2022-09-27T01:04:32.209Z,334.17
2022-09-27T01:06:09.047Z,275.63
2022-09-27T01:07:42.200Z,303.77
2022-09-27T01:09:14.879Z,336.63
2022-09-27T01:11:14.857Z,908.33
2022-09-27T01:13:34.888Z,1930.17
2022-09-27T01:15:25.201Z,1285.80
2022-09-27T01:17:15.729Z,1813.13
2022-09-27T01:19:15.007Z,1301.30
2022-09-27T01:21:15.078Z,792.17
2022-09-27T01:23:24.680Z,1660.90
2022-09-27T01:25:12.578Z,1695.93
2022-09-27T01:27:22.760Z,1999.90
2022-09-27T01:29:49.507Z,614.70
2022-09-27T01:31:46.356Z,1815.70
2022-09-27T01:33:31.950Z,1619.43
2022-09-27T01:35:39.565Z,1687.97
2022-09-27T01:37:34.997Z,845.10
2022-09-27T01:39:31.672Z,1672.83
2022-09-27T01:41:24.505Z,1896.17
2022-09-27T01:43:16.875Z,1058.37
2022-09-27T01:44:59.079Z,1264.90
2022-09-27T01:46:39.956Z,1419.87
2022-09-27T01:48:40.075Z,967.93
2022-09-27T01:50:43.863Z,469.67
2022-09-27T01:52:22.202Z,808.87
2022-09-27T01:54:02.703Z,787.77
2022-09-27T01:55:38.962Z,378.87
2022-09-27T01:57:17.115Z,1360.70
2022-09-27T01:59:04.006Z,1999.90
2022-09-27T02:00:43.275Z,1999.90
2022-09-27T02:02:20.267Z,1500.57
2022-09-27T02:03:58.135Z,428.83
2022-09-27T02:05:47.743Z,1754.40
2022-09-27T02:07:53.486Z,775.73
2022-09-27T02:09:29.128Z,678.97
2022-09-27T02:11:09.564Z,461.87
2022-09-27T02:12:57.450Z,1367.50
2022-09-27T02:14:53.383Z,1482.10
2022-09-27T02:16:53.020Z,414.93
2022-09-27T02:18:55.555Z,1265.83
2022-09-27T02:20:48.268Z,1592.37
2022-09-27T02:22:49.147Z,528.50
2022-09-27T02:24:37.546Z,1211.47
2022-09-27T02:26:18.844Z,214.27
2022-09-27T02:28:00.109Z,344.63
2022-09-27T02:29:46.742Z,318.53
2022-09-27T02:31:20.224Z,705.33
2022-09-27T02:32:53.259Z,631.20
2022-09-27T02:34:30.985Z,643.60
2022-09-27T02:36:03.636Z,685.40
2022-09-27T02:37:35.956Z,750.40
2022-09-27T02:39:08.949Z,1299.77
2022-09-27T02:40:47.919Z,400.53
2022-09-27T02:42:20.701Z,1436.40
2022-09-27T02:44:04.820Z,995.13
2022-09-27T02:45:49.298Z,1101.37
2022-09-27T02:47:39.412Z,392.27
2022-09-27T02:49:41.859Z,891.00
2022-09-27T02:51:42.540Z,849.33
2022-09-27T02:53:20.975Z,779.27
2022-09-27T02:55:19.875Z,1103.83
2022-09-27T02:57:19.788Z,448.47
2022-09-27T02:59:28.915Z,670.27
2022-09-27T03:01:41.391Z,621.87
2022-09-27T03:03:51.764Z,1009.60
2022-09-27T03:05:35.243Z,785.30
2022-09-27T03:07:08.346Z,910.60
2022-09-27T03:08:41.997Z,841.97
2022-09-27T03:10:23.154Z,1120.93
2022-09-27T03:11:55.834Z,864.53
2022-09-27T03:13:28.483Z,899.90
2022-09-27T03:15:01.115Z,848.90
2022-09-27T03:16:33.609Z,854.60
2022-09-27T03:18:06.956Z,859.90
2022-09-27T03:19:39.183Z,672.07
2022-09-27T03:21:11.368Z,715.30
2022-09-27T03:22:43.622Z,694.47
2022-09-27T03:24:16.488Z,936.07
2022-09-27T03:25:49.868Z,1295.17
2022-09-27T03:27:22.136Z,1544.63
2022-09-27T03:28:54.543Z,889.17
2022-09-27T03:30:27.128Z,1177.87
2022-09-27T03:31:59.420Z,721.33
2022-09-27T03:33:31.999Z,704.40
2022-09-27T03:35:04.748Z,724.80
2022-09-27T03:36:37.257Z,754.77
2022-09-27T03:38:10.779Z,477.30
2022-09-27T03:39:43.271Z,668.33
2022-09-27T03:41:15.636Z,703.90
2022-09-27T03:42:50.146Z,692.13
2022-09-27T03:44:22.953Z,576.97
2022-09-27T03:45:55.455Z,517.47
2022-09-27T03:47:28.204Z,693.53
2022-09-27T03:49:00.986Z,700.80
2022-09-27T03:50:33.327Z,953.03
2022-09-27T03:52:05.885Z,519.87
2022-09-27T03:53:38.410Z,1049.43
2022-09-27T03:55:14.668Z,631.10
2022-09-27T03:56:46.978Z,685.67
2022-09-27T03:58:19.319Z,725.03
2022-09-27T03:59:52.023Z,622.60
2022-09-27T04:01:26.185Z,590.57
2022-09-27T04:03:00.185Z,670.93
2022-09-27T04:04:32.733Z,591.20
2022-09-27T04:06:05.543Z,559.40
2022-09-27T04:07:38.015Z,640.07
2022-09-27T04:09:10.265Z,586.90
2022-09-27T04:10:43.333Z,536.50
2022-09-27T04:12:16.086Z,780.07
2022-09-27T04:13:49.248Z,664.00
2022-09-27T04:15:21.556Z,1356.57
2022-09-27T04:16:53.817Z,1427.93
2022-09-27T04:18:26.056Z,1349.33
2022-09-27T04:19:58.492Z,1353.33
2022-09-27T04:21:30.868Z,794.03
2022-09-27T04:23:03.821Z,1204.63
2022-09-27T04:24:36.404Z,1265.90
2022-09-27T04:26:09.196Z,1094.30
2022-09-27T04:27:45.965Z,1367.77
2022-09-27T04:29:18.238Z,890.30
2022-09-27T04:30:50.722Z,560.83
2022-09-27T04:32:23.438Z,765.63
2022-09-27T04:33:55.967Z,745.10
2022-09-27T04:35:46.875Z,717.30
2022-09-27T04:37:19.079Z,1164.80
2022-09-27T04:38:51.516Z,1109.73
2022-09-27T04:40:24.329Z,672.13
2022-09-27T04:41:57.106Z,731.40
2022-09-27T04:43:30.197Z,612.07
2022-09-27T04:45:02.644Z,1082.50
2022-09-27T04:46:35.379Z,676.17
2022-09-27T04:48:07.680Z,1282.50
2022-09-27T04:49:40.084Z,769.57
2022-09-27T04:51:13.407Z,1043.63
2022-09-27T04:52:50.987Z,763.37
2022-09-27T04:54:23.659Z,601.07
2022-09-27T04:55:56.226Z,552.07
2022-09-27T04:57:28.647Z,1274.63
2022-09-27T04:59:01.356Z,600.37
2022-09-27T05:00:33.596Z,569.20
2022-09-27T05:02:05.954Z,599.10
2022-09-27T05:03:39.327Z,625.20
2022-09-27T05:05:12.176Z,1133.17
2022-09-27T05:06:45.345Z,1036.20
2022-09-27T05:08:18.419Z,530.90
2022-09-27T05:09:50.987Z,438.83
2022-09-27T05:11:23.384Z,471.20
2022-09-27T05:12:55.654Z,910.83
2022-09-27T05:14:27.982Z,963.60
2022-09-27T05:16:04.996Z,1156.33
2022-09-27T05:17:37.280Z,480.83
2022-09-27T05:19:09.534Z,982.00
2022-09-27T05:20:42.414Z,817.37
2022-09-27T05:22:15.115Z,510.43
2022-09-27T05:23:48.042Z,915.70
2022-09-27T05:25:20.367Z,699.53
2022-09-27T05:26:53.120Z,508.80
2022-09-27T05:28:25.615Z,509.13
2022-09-27T05:30:00.503Z,494.60
2022-09-27T05:31:32.778Z,463.27
2022-09-27T05:33:05.059Z,432.10
2022-09-27T05:34:37.515Z,985.53
2022-09-27T05:36:10.418Z,1342.77
2022-09-27T05:37:42.687Z,1161.70
2022-09-27T05:39:16.920Z,582.27
2022-09-27T05:40:51.151Z,1181.93
2022-09-27T05:42:24.140Z,1223.30
2022-09-27T05:43:56.922Z,913.13
2022-09-27T05:45:29.624Z,534.43
2022-09-27T05:47:04.400Z,1246.87
2022-09-27T05:48:38.340Z,947.10
2022-09-27T05:50:10.974Z,909.90
2022-09-27T05:51:44.019Z,577.70
2022-09-27T05:53:16.432Z,294.13
2022-09-27T05:54:48.616Z,273.00
2022-09-27T05:56:20.852Z,310.53
2022-09-27T05:58:03.359Z,859.27
2022-09-27T05:59:35.891Z,1185.50
2022-09-27T06:01:08.683Z,1379.50
2022-09-27T06:02:41.309Z,1425.50
2022-09-27T06:04:13.779Z,765.77
2022-09-27T06:05:51.112Z,391.30
2022-09-27T06:07:23.636Z,1514.60
2022-09-27T06:08:55.960Z,1102.80
2022-09-27T06:10:31.186Z,1275.27
2022-09-27T06:12:04.040Z,1171.67
2022-09-27T06:13:36.786Z,850.47
2022-09-27T06:15:09.568Z,1124.30
2022-09-27T06:16:43.035Z,1236.63
2022-09-27T06:18:18.120Z,382.23
2022-09-27T06:19:50.415Z,1205.17
2022-09-27T06:21:22.727Z,1186.30
2022-09-27T06:22:55.692Z,1107.03
2022-09-27T06:24:29.024Z,1290.40
2022-09-27T06:26:07.966Z,1278.07
2022-09-27T06:27:40.293Z,1212.53
2022-09-27T06:29:12.564Z,1438.33
2022-09-27T06:30:48.656Z,1348.63
2022-09-27T06:32:21.255Z,1333.50
2022-09-27T06:33:54.093Z,1257.27
2022-09-27T06:35:28.655Z,692.70
2022-09-27T06:37:01.117Z,889.97
2022-09-27T06:38:34.685Z,764.80
2022-09-27T06:40:09.205Z,526.20
2022-09-27T06:41:41.865Z,542.33
2022-09-27T06:43:18.432Z,672.77
2022-09-27T06:44:51.026Z,558.07
2022-09-27T06:46:23.349Z,717.93
2022-09-27T06:47:57.056Z,377.27
2022-09-27T06:49:31.118Z,773.50
2022-09-27T06:51:03.835Z,683.53
2022-09-27T06:52:37.182Z,547.73
2022-09-27T06:54:09.471Z,1197.67
2022-09-27T06:55:43.282Z,1358.70
2022-09-27T06:57:35.533Z,914.53
2022-09-27T06:59:26.403Z,796.87
2022-09-27T07:00:58.984Z,569.50
2022-09-27T07:02:31.763Z,780.43
2022-09-27T07:04:04.310Z,637.70
2022-09-27T07:05:37.519Z,910.10
2022-09-27T07:07:10.743Z,1232.40
2022-09-27T07:08:43.184Z,489.40
2022-09-27T07:10:18.348Z,335.93
2022-09-27T07:11:50.991Z,968.73
2022-09-27T07:13:23.792Z,484.27
2022-09-27T07:14:57.017Z,844.93
2022-09-27T07:16:29.237Z,516.23
2022-09-27T07:18:01.499Z,795.97
2022-09-27T07:19:34.024Z,961.00
2022-09-27T07:21:06.563Z,806.00
2022-09-27T07:22:44.118Z,1011.47
2022-09-27T07:24:16.340Z,1080.70
2022-09-27T07:25:48.744Z,651.87
2022-09-27T07:27:22.180Z,909.70
2022-09-27T07:28:54.827Z,1064.33
2022-09-27T07:30:27.416Z,605.00
2022-09-27T07:32:00.019Z,435.63
2022-09-27T07:33:33.090Z,265.40
2022-09-27T07:35:08.448Z,202.40
2022-09-27T07:36:40.943Z,304.57
2022-09-27T07:38:14.061Z,336.67
2022-09-27T07:39:46.352Z,232.03
2022-09-27T07:41:18.598Z,320.77
2022-09-27T07:42:58.503Z,584.87
2022-09-27T07:44:31.031Z,815.63
2022-09-27T07:46:03.477Z,907.40
2022-09-27T07:47:37.563Z,940.30
2022-09-27T07:49:10.126Z,647.97
2022-09-27T07:50:43.044Z,281.43
2022-09-27T07:52:16.241Z,599.03
2022-09-27T07:53:48.468Z,478.40
2022-09-27T07:55:20.852Z,230.90
2022-09-27T07:56:55.275Z,264.13
2022-09-27T07:58:28.130Z,370.73
2022-09-27T08:00:00.458Z,560.43
2022-09-27T08:01:34.706Z,353.23
2022-09-27T08:03:11.577Z,189.43
2022-09-27T08:04:44.012Z,190.10
2022-09-27T08:06:16.567Z,395.20
2022-09-27T08:07:55.655Z,194.47
2022-09-27T08:09:28.431Z,520.83
2022-09-27T08:11:00.826Z,380.30
2022-09-27T08:12:33.160Z,312.30
2022-09-27T08:14:05.719Z,213.50
2022-09-27T08:15:39.163Z,181.90
2022-09-27T08:17:11.881Z,175.67
2022-09-27T08:18:44.523Z,125.10
2022-09-27T08:20:17.611Z,95.70
2022-09-27T08:21:58.743Z,110.90
2022-09-27T08:23:31.786Z,109.27
2022-09-27T08:25:04.456Z,132.70
2022-09-27T08:26:36.796Z,159.27
2022-09-27T08:28:10.109Z,87.23
2022-09-27T08:29:42.405Z,88.03
2022-09-27T08:31:14.935Z,90.63
2022-09-27T08:32:47.288Z,96.30
2022-09-27T08:34:23.752Z,98.57
2022-09-27T08:35:56.013Z,85.40
2022-09-27T08:37:28.255Z,71.37
2022-09-27T08:39:00.547Z,78.37
2022-09-27T08:41:03.044Z,76.20
2022-09-27T08:42:35.369Z,81.13
2022-09-27T08:44:34.884Z,76.63
2022-09-27T08:46:51.423Z,80.33
2022-09-27T08:48:27.836Z,77.63
2022-09-27T08:50:27.213Z,75.00
2022-09-27T08:52:01.246Z,67.73
2022-09-27T08:53:52.999Z,79.07
2022-09-27T08:55:43.969Z,76.80
2022-09-27T08:57:17.856Z,90.43
2022-09-27T08:59:01.623Z,94.60
2022-09-27T09:00:34.091Z,69.23
2022-09-27T09:02:21.705Z,67.60
2022-09-27T09:03:59.799Z,63.37
2022-09-27T09:05:35.792Z,60.47
2022-09-27T09:07:35.863Z,62.80
2022-09-27T09:09:27.666Z,61.00
2022-09-27T09:12:01.694Z,54.43
2022-09-27T09:13:42.686Z,46.37
2022-09-27T09:15:20.964Z,50.93
2022-09-27T09:16:57.186Z,48.53
2022-09-27T09:19:42.371Z,43.57
2022-09-27T09:21:55.783Z,44.80
2022-09-27T09:23:58.068Z,37.67
2022-09-27T09:25:48.767Z,43.03
2022-09-27T09:28:06.151Z,43.53
2022-09-27T09:30:15.742Z,35.23
2022-09-27T09:31:59.610Z,31.87
2022-09-27T09:33:44.363Z,34.20
2022-09-27T09:35:31.332Z,35.20
2022-09-27T09:37:10.786Z,35.80
2022-09-27T09:39:12.072Z,33.07
2022-09-27T09:41:03.025Z,30.40
2022-09-27T09:42:42.752Z,26.57
2022-09-27T09:44:27.204Z,31.47
2022-09-27T09:46:20.261Z,31.63
2022-09-27T09:48:32.689Z,32.03
2022-09-27T09:50:38.985Z,28.73
2022-09-27T09:52:19.238Z,29.07
2022-09-27T09:54:31.617Z,33.30
2022-09-27T09:56:18.488Z,32.70
2022-09-27T09:58:20.013Z,29.33
2022-09-27T10:00:01.691Z,24.80
2022-09-27T10:01:50.524Z,25.23
2022-09-27T10:03:24.476Z,29.17
2022-09-27T10:04:57.029Z,28.83
2022-09-27T10:06:31.670Z,26.50
2022-09-27T10:08:11.639Z,27.47
2022-09-27T10:09:43.960Z,24.30
2022-09-27T10:11:27.651Z,25.63
2022-09-27T10:13:04.261Z,25.83
2022-09-27T10:14:37.427Z,25.47
2022-09-27T10:16:14.655Z,22.23
2022-09-27T10:17:53.822Z,23.43
2022-09-27T10:19:31.735Z,22.13
2022-09-27T10:21:31.275Z,26.83
2022-09-27T10:23:21.172Z,23.47
2022-09-27T10:25:02.434Z,24.33
2022-09-27T10:26:37.479Z,24.00
2022-09-27T10:28:09.898Z,22.10
2022-09-27T10:29:42.679Z,27.90
2022-09-27T10:31:20.652Z,25.17
2022-09-27T10:33:21.621Z,24.93
2022-09-27T10:34:56.377Z,24.90
2022-09-27T10:36:36.370Z,24.80
2022-09-27T10:38:27.998Z,23.23
2022-09-27T10:40:02.117Z,25.17
2022-09-27T10:41:42.501Z,25.10
2022-09-27T10:43:35.553Z,21.80
2022-09-27T10:45:31.943Z,23.27
2022-09-27T10:47:12.399Z,22.67
2022-09-27T10:48:44.907Z,23.40
2022-09-27T10:50:49.056Z,20.73
2022-09-27T10:52:24.752Z,24.13
2022-09-27T10:54:01.574Z,23.77
2022-09-27T10:55:37.237Z,17.70
2022-09-27T10:57:18.243Z,20.43
2022-09-27T10:58:51.603Z,23.97
2022-09-27T11:00:34.216Z,22.27
2022-09-27T11:02:34.272Z,21.83
2022-09-27T11:04:07.201Z,24.00
2022-09-27T11:05:40.512Z,21.60
2022-09-27T11:07:18.389Z,21.10
2022-09-27T11:08:53.472Z,18.43
2022-09-27T11:10:37.658Z,20.43
2022-09-27T11:12:13.456Z,18.03
2022-09-27T11:14:08.136Z,20.33
2022-09-27T11:16:37.232Z,20.23
2022-09-27T11:18:34.806Z,20.63
2022-09-27T11:20:27.611Z,18.83
2022-09-27T11:22:53.664Z,17.63
2022-09-27T11:25:01.190Z,17.63
2022-09-27T11:26:58.696Z,17.93
2022-09-27T11:29:03.708Z,21.43
2022-09-27T11:30:57.160Z,18.83
2022-09-27T11:33:06.593Z,16.17
2022-09-27T11:35:07.172Z,15.33
2022-09-27T11:37:02.687Z,20.30
2022-09-27T11:39:02.957Z,16.53
2022-09-27T11:41:16.622Z,16.77
2022-09-27T11:43:09.916Z,17.73
2022-09-27T11:47:28.671Z,13.37
2022-09-27T11:49:19.891Z,18.03
2022-09-27T11:51:21.958Z,13.23
2022-09-27T11:53:29.447Z,16.77
2022-09-27T11:55:37.343Z,13.23
2022-09-27T11:57:49.082Z,13.33
2022-09-27T11:59:49.065Z,17.97
2022-09-27T12:01:59.114Z,14.40
2022-09-27T12:04:09.024Z,15.87
2022-09-27T12:06:07.642Z,13.97
2022-09-27T12:08:24.813Z,14.80
2022-09-27T12:10:09.521Z,14.43
2022-09-27T12:11:54.793Z,13.57
2022-09-27T12:13:41.531Z,15.17
2022-09-27T12:15:26.075Z,14.50
2022-09-27T12:16:59.730Z,17.30
2022-09-27T12:18:41.523Z,14.67
2022-09-27T12:20:34.582Z,12.93
2022-09-27T12:22:14.420Z,15.80
2022-09-27T12:23:58.613Z,15.43
2022-09-27T12:25:40.195Z,15.00
2022-09-27T12:27:42.784Z,15.30
2022-09-27T12:29:33.331Z,10.57
2022-09-27T12:31:29.106Z,10.40
2022-09-27T12:33:23.063Z,9.33
2022-09-27T12:35:25.476Z,9.97
2022-09-27T12:37:05.464Z,11.50
2022-09-27T12:39:20.932Z,11.90
2022-09-27T12:41:00.253Z,10.63
2022-09-27T12:42:44.951Z,12.83
2022-09-27T12:44:17.227Z,12.53
2022-09-27T12:46:08.943Z,13.23
2022-09-27T12:47:51.400Z,11.57
2022-09-27T12:49:40.724Z,12.83
2022-09-27T12:51:18.801Z,12.93
2022-09-27T12:53:05.698Z,16.50
2022-09-27T12:55:05.615Z,13.27
2022-09-27T12:56:59.928Z,16.37
2022-09-27T12:58:56.870Z,14.97
2022-09-27T13:01:16.968Z,13.93
2022-09-27T13:03:26.419Z,13.30
2022-09-27T13:05:35.449Z,15.50
2022-09-27T13:07:26.185Z,16.73
2022-09-27T13:09:07.278Z,16.10
2022-09-27T13:10:55.235Z,16.73
2022-09-27T13:12:30.918Z,21.83
2022-09-27T13:14:05.526Z,16.10
2022-09-27T13:15:39.918Z,15.37
2022-09-27T13:17:40.944Z,16.47
2022-09-27T13:19:35.715Z,18.47
2022-09-27T13:21:09.703Z,16.03
2022-09-27T13:22:43.091Z,13.73
2022-09-27T13:24:46.940Z,19.50
2022-09-27T13:26:42.865Z,14.50
2022-09-27T13:28:33.807Z,19.13
2022-09-27T13:30:08.672Z,16.30
2022-09-27T13:32:02.162Z,11.93
2022-09-27T13:33:47.268Z,17.17
2022-09-27T13:35:26.633Z,12.93
2022-09-27T13:36:58.920Z,14.90
2022-09-27T13:38:31.266Z,16.97
2022-09-27T13:40:16.010Z,14.87
2022-09-27T13:41:48.834Z,14.10
2022-09-27T13:43:57.586Z,14.67
2022-09-27T13:45:42.964Z,16.63
2022-09-27T13:47:40.593Z,12.63
2022-09-27T13:49:29.398Z,16.30
2022-09-27T13:51:17.058Z,15.97
2022-09-27T13:53:23.585Z,14.63
2022-09-27T13:55:02.445Z,12.87
2022-09-27T13:56:40.417Z,13.70
2022-09-27T13:58:36.493Z,15.33
2022-09-27T14:00:21.634Z,15.30
2022-09-27T14:02:18.414Z,13.20
2022-09-27T14:04:01.372Z,11.30
2022-09-27T14:05:57.760Z,15.83
2022-09-27T14:07:43.218Z,15.60
2022-09-27T14:09:33.082Z,14.13
2022-09-27T14:11:15.723Z,17.10
2022-09-27T14:12:52.219Z,19.63
2022-09-27T14:14:30.446Z,15.87
2022-09-27T14:16:06.235Z,19.23
2022-09-27T14:17:45.868Z,21.63
2022-09-27T14:19:26.760Z,13.87
2022-09-27T14:21:18.747Z,16.07
2022-09-27T14:22:55.360Z,16.00
2022-09-27T14:24:36.630Z,19.30
2022-09-27T14:26:27.720Z,21.77
2022-09-27T14:28:00.574Z,24.27
2022-09-27T14:29:41.346Z,24.77
2022-09-27T14:31:17.912Z,20.37
2022-09-27T14:32:58.403Z,20.90
2022-09-27T14:34:30.617Z,19.33
2022-09-27T14:36:25.709Z,20.67
2022-09-27T14:38:07.561Z,18.50
2022-09-27T14:39:59.434Z,21.80
2022-09-27T14:41:37.878Z,23.43
2022-09-27T14:43:20.747Z,22.20
2022-09-27T14:45:00.643Z,25.80
2022-09-27T14:46:33.190Z,25.00
2022-09-27T14:48:31.190Z,25.97
2022-09-27T14:50:29.741Z,36.50
2022-09-27T14:52:02.700Z,28.63
2022-09-27T14:53:44.518Z,19.87
2022-09-27T14:55:21.751Z,26.20
2022-09-27T14:56:56.274Z,20.53
2022-09-27T14:58:46.593Z,22.90
2022-09-27T15:00:33.969Z,25.30
2022-09-27T15:02:20.330Z,24.53
2022-09-27T15:03:53.682Z,22.47
2022-09-27T15:05:32.177Z,22.57
2022-09-27T15:07:05.183Z,15.07
2022-09-27T15:08:39.695Z,22.77
2022-09-27T15:10:27.222Z,19.07
2022-09-27T15:12:00.886Z,22.00
2022-09-27T15:13:36.776Z,20.77
2022-09-27T15:15:22.075Z,21.67
2022-09-27T15:16:55.455Z,19.60
2022-09-27T15:18:46.646Z,22.27
2022-09-27T15:20:35.915Z,21.43
2022-09-27T15:22:44.643Z,22.73
2022-09-27T15:24:43.481Z,24.23
2022-09-27T15:26:41.336Z,23.53
2022-09-27T15:28:19.423Z,20.23
2022-09-27T15:29:58.516Z,19.00
2022-09-27T15:31:36.578Z,24.57
2022-09-27T15:33:25.792Z,27.47
2022-09-27T15:35:08.559Z,21.77
2022-09-27T15:36:55.583Z,19.37
2022-09-27T15:38:35.628Z,24.30
2022-09-27T15:40:20.460Z,23.73
2022-09-27T15:42:09.784Z,23.50
2022-09-27T15:43:46.672Z,22.00
2022-09-27T15:45:30.864Z,19.13
2022-09-27T15:47:03.380Z,38.53
2022-09-27T15:48:37.699Z,27.37
2022-09-27T15:50:15.752Z,26.87
2022-09-27T15:51:54.063Z,24.67
2022-09-27T15:53:35.787Z,30.33
2022-09-27T15:55:15.919Z,25.73
2022-09-27T15:56:55.047Z,27.40
2022-09-27T15:58:29.063Z,26.37
2022-09-27T16:00:02.544Z,24.87
2022-09-27T16:01:34.849Z,26.60
2022-09-27T16:03:10.278Z,21.13
2022-09-27T16:04:42.801Z,34.47
2022-09-27T16:06:15.755Z,28.20
2022-09-27T16:07:47.935Z,27.17
2022-09-27T16:09:22.638Z,31.87
2022-09-27T16:10:58.664Z,26.87
2022-09-27T16:12:32.137Z,27.83
2022-09-27T16:14:04.481Z,28.10
2022-09-27T16:15:37.679Z,27.07
2022-09-27T16:17:10.855Z,29.90
2022-09-27T16:18:45.018Z,23.13
2022-09-27T16:20:25.069Z,24.83
2022-09-27T16:21:57.689Z,30.70
2022-09-27T16:23:29.909Z,26.07
2022-09-27T16:25:02.428Z,30.43
2022-09-27T16:26:34.765Z,26.70
2022-09-27T16:28:09.775Z,28.07
2022-09-27T16:29:44.434Z,24.07
2022-09-27T16:31:17.993Z,29.27
2022-09-27T16:32:50.703Z,25.27
2022-09-27T16:34:23.258Z,27.33
2022-09-27T16:35:55.857Z,26.90
2022-09-27T16:37:30.234Z,29.37
2022-09-27T16:39:05.189Z,30.83
2022-09-27T16:40:38.637Z,30.70
2022-09-27T16:42:10.902Z,32.70
2022-09-27T16:43:45.138Z,32.83
2022-09-27T16:45:19.591Z,35.90
2022-09-27T16:46:52.338Z,36.57
2022-09-27T16:48:25.088Z,30.20
2022-09-27T16:50:15.616Z,28.87
2022-09-27T16:51:59.981Z,35.80
2022-09-27T16:53:33.471Z,26.93
2022-09-27T16:55:09.219Z,31.53
2022-09-27T16:56:41.975Z,32.57
2022-09-27T16:58:14.455Z,38.77
2022-09-27T16:59:48.116Z,37.53
2022-09-27T17:01:21.647Z,31.77
2022-09-27T17:02:54.663Z,33.77
2022-09-27T17:04:28.511Z,38.53
2022-09-27T17:06:04.280Z,37.27
2022-09-27T17:07:36.617Z,39.77
2022-09-27T17:09:09.196Z,43.40
2022-09-27T17:10:46.129Z,46.60
2022-09-27T17:12:18.542Z,43.07
2022-09-27T17:13:55.823Z,38.50
2022-09-27T17:15:28.128Z,40.23
2022-09-27T17:17:00.323Z,40.50
2022-09-27T17:18:33.167Z,35.70
2022-09-27T17:20:05.914Z,44.03
2022-09-27T17:21:39.039Z,44.70
2022-09-27T17:23:11.706Z,45.73
2022-09-27T17:24:44.785Z,124.13
2022-09-27T17:26:26.512Z,41.03
2022-09-27T17:27:59.075Z,41.47
2022-09-27T17:29:31.647Z,44.47
2022-09-27T17:31:10.721Z,37.97
2022-09-27T17:32:43.130Z,45.10
2022-09-27T17:34:15.852Z,47.90
2022-09-27T17:35:48.239Z,47.27
2022-09-27T17:37:20.676Z,50.37
2022-09-27T17:38:53.460Z,61.27
2022-09-27T17:40:25.715Z,77.47
2022-09-27T17:41:59.779Z,75.50
2022-09-27T17:43:35.572Z,83.27
2022-09-27T17:45:08.784Z,67.47
2022-09-27T17:46:42.634Z,64.43
2022-09-27T17:48:33.800Z,66.37
2022-09-27T17:50:24.713Z,41.80
2022-09-27T17:51:57.239Z,54.30
2022-09-27T17:53:32.980Z,56.60
2022-09-27T17:55:08.519Z,61.97
2022-09-27T17:56:43.676Z,58.70
2022-09-27T17:58:15.823Z,54.60
2022-09-27T17:59:48.320Z,58.97
2022-09-27T18:01:24.488Z,54.97
2022-09-27T18:02:57.035Z,50.67
2022-09-27T18:04:29.519Z,53.10
2022-09-27T18:06:09.812Z,50.63
2022-09-27T18:07:42.435Z,54.27
2022-09-27T18:09:17.246Z,53.73
2022-09-27T18:10:50.704Z,52.73
2022-09-27T18:12:22.991Z,53.87
2022-09-27T18:14:00.166Z,64.50
2022-09-27T18:15:32.598Z,69.67
2022-09-27T18:17:04.948Z,55.30
2022-09-27T18:18:43.015Z,54.00
2022-09-27T18:20:15.476Z,66.47
2022-09-27T18:21:47.775Z,64.40
2022-09-27T18:23:20.596Z,57.00
2022-09-27T18:24:52.975Z,60.53
2022-09-27T18:26:29.009Z,61.37
2022-09-27T18:28:02.059Z,57.57
2022-09-27T18:29:34.360Z,58.37
2022-09-27T18:31:17.187Z,64.70
2022-09-27T18:32:51.494Z,68.43
2022-09-27T18:34:25.227Z,69.70
2022-09-27T18:36:06.108Z,68.83
2022-09-27T18:37:38.268Z,65.63
2022-09-27T18:39:14.937Z,58.57
2022-09-27T18:40:56.230Z,57.87
2022-09-27T18:42:29.635Z,56.87
2022-09-27T18:44:05.219Z,57.70
2022-09-27T18:45:38.872Z,50.33
2022-09-27T18:47:11.107Z,54.87
2022-09-27T18:48:43.425Z,63.80
2022-09-27T18:50:15.594Z,71.67
2022-09-27T18:51:49.459Z,68.77
2022-09-27T18:53:21.614Z,76.40
2022-09-27T18:54:54.818Z,63.63
2022-09-27T18:56:28.605Z,69.77
2022-09-27T18:58:00.964Z,68.03
2022-09-27T18:59:34.326Z,66.20
2022-09-27T19:01:10.180Z,66.87
2022-09-27T19:02:42.467Z,68.23
2022-09-27T19:04:24.903Z,78.50
2022-09-27T19:06:05.800Z,79.87
2022-09-27T19:07:41.088Z,102.53
2022-09-27T19:09:13.809Z,92.10
2022-09-27T19:10:46.391Z,93.60
2022-09-27T19:12:18.551Z,107.63
2022-09-27T19:13:54.129Z,101.10
2022-09-27T19:15:26.674Z,123.87
2022-09-27T19:16:59.200Z,148.30
2022-09-27T19:18:31.894Z,109.93
2022-09-27T19:20:06.811Z,95.93
2022-09-27T19:21:39.554Z,93.67
2022-09-27T19:23:11.936Z,100.93
2022-09-27T19:24:44.144Z,118.10
2022-09-27T19:26:20.531Z,112.47
2022-09-27T19:27:53.699Z,98.50
2022-09-27T19:29:26.159Z,71.37
2022-09-27T19:30:58.607Z,48.70
2022-09-27T19:32:30.985Z,68.83
2022-09-27T19:34:04.031Z,62.47
2022-09-27T19:35:37.025Z,73.23
2022-09-27T19:37:09.179Z,64.90
2022-09-27T19:38:41.671Z,70.77
2022-09-27T19:40:14.195Z,56.50
2022-09-27T19:41:46.679Z,59.60
2022-09-27T19:43:18.891Z,49.13
2022-09-27T19:44:51.094Z,61.83
2022-09-27T19:46:25.692Z,63.37
2022-09-27T19:47:58.175Z,55.13
2022-09-27T19:49:30.324Z,56.40
2022-09-27T19:51:02.729Z,63.97
2022-09-27T19:52:35.260Z,82.33
2022-09-27T19:54:11.701Z,86.57
2022-09-27T19:55:43.990Z,50.27
2022-09-27T19:57:18.046Z,46.53
2022-09-27T19:58:50.336Z,41.07
2022-09-27T20:00:22.825Z,47.87
2022-09-27T20:01:55.552Z,31.87
2022-09-27T20:03:28.947Z,36.43
2022-09-27T20:05:01.116Z,34.27
2022-09-27T20:06:34.555Z,29.33
2022-09-27T20:08:07.898Z,31.60
2022-09-27T20:09:40.320Z,39.20
2022-09-27T20:11:16.759Z,39.43
2022-09-27T20:12:51.650Z,25.93
2022-09-27T20:14:23.937Z,26.73
2022-09-27T20:16:05.297Z,25.03
2022-09-27T20:17:37.866Z,28.77
2022-09-27T20:19:11.635Z,25.77
2022-09-27T20:20:44.415Z,20.53
2022-09-27T20:22:16.583Z,18.47
2022-09-27T20:23:51.063Z,20.07
2022-09-27T20:25:23.809Z,17.27
2022-09-27T20:26:56.095Z,19.10
2022-09-27T20:28:29.212Z,22.03
2022-09-27T20:30:02.659Z,17.60
2022-09-27T20:31:51.714Z,20.07
2022-09-27T20:33:42.391Z,20.03
2022-09-27T20:35:15.351Z,17.17
2022-09-27T20:36:47.748Z,16.77
2022-09-27T20:38:20.738Z,18.70
2022-09-27T20:39:54.183Z,15.87
2022-09-27T20:41:26.871Z,13.60
2022-09-27T20:42:59.320Z,16.73
2022-09-27T20:44:31.891Z,15.77
2022-09-27T20:46:08.222Z,15.50
2022-09-27T20:47:40.411Z,17.07
2022-09-27T20:49:16.872Z,18.53
2022-09-27T20:50:49.274Z,21.50
2022-09-27T20:52:21.482Z,20.23
2022-09-27T20:53:54.765Z,23.60
2022-09-27T20:55:27.162Z,19.47
2022-09-27T20:56:59.763Z,21.03
2022-09-27T20:58:32.733Z,21.77
2022-09-27T21:00:05.819Z,18.07
2022-09-27T21:01:41.176Z,21.70
2022-09-27T21:03:14.843Z,21.00
2022-09-27T21:04:48.436Z,21.20
2022-09-27T21:06:22.931Z,23.70
2022-09-27T21:07:55.805Z,20.37
2022-09-27T21:09:28.020Z,17.30
2022-09-27T21:11:17.608Z,18.20
2022-09-27T21:12:49.811Z,15.40